virtualACA

Welcome To Calgary International Airport CYYC

Hub Roster

Pilot Domicile Rank
Ethan Title - ACA1641CanadaChief Pilot
Graham Dawson - ACA2317CanadaChief Pilot
Roger Godden - ACA2339CanadaChief Pilot
Hamir Hamir - ACA2906CanadaFirst Officer
Jake Moerland - ACA3058CanadaSenior Officer
Pam Magee - ACA3207CanadaSecond Officer

Current Vatsim Weather


CYYC 190500Z 35007KT 15SM FEW230 05/M02 A3020 RMK CI2 SLP246
Calgary International Airport